Terminal Aerodrome Forecast
Issued by NWS Twin Cities, MN

Home | Current Version | Previous Version | Text Only | Print | Product List | Glossary Off
Versions: 1 2 3 4 5 6 7 8 9 10 11 12 13 14 15 16 17 18 19 20 21 22 23 24 25 26 27 28 29

000
FTUS43 KMPX 260302 AAA
TAFMSP
TAF AMD
KMSP 260302Z 2603/2706 27012KT P6SM BKN040
     FM261300 29015G25KT P6SM SKC
     FM261600 30020G33KT P6SM BKN050
     FM270000 30017KT P6SM FEW050=

USA.gov is the U.S. government's official web portal to all federal, state and local government web resources and services.